createdAt,value
2023-11-04T00:00:06.762Z,5.8
2023-11-04T00:02:33.596Z,5.1
2023-11-04T00:05:00.439Z,4.3
2023-11-04T00:07:27.307Z,4.4
2023-11-04T00:09:54.123Z,4.2
2023-11-04T00:12:20.963Z,5.3
2023-11-04T00:14:47.798Z,5.5
2023-11-04T00:17:14.633Z,6.6
2023-11-04T00:19:40.069Z,5.6
2023-11-04T00:22:06.893Z,5.6
2023-11-04T00:24:33.720Z,4.5
2023-11-04T00:27:00.581Z,4.6
2023-11-04T00:29:27.418Z,4.5
2023-11-04T00:31:54.259Z,4.6
2023-11-04T00:34:21.100Z,6.1
2023-11-04T00:36:47.941Z,5.2
2023-11-04T00:39:14.773Z,5
2023-11-04T00:41:41.612Z,5.6
2023-11-04T00:44:08.448Z,5.2
2023-11-04T00:46:35.293Z,4
2023-11-04T00:49:02.134Z,4.3
2023-11-04T00:51:27.561Z,4.1
2023-11-04T00:53:54.401Z,4.6
2023-11-04T00:56:21.250Z,5.2
2023-11-04T00:58:48.090Z,5.6
2023-11-04T01:01:14.923Z,4.6
2023-11-04T01:03:41.751Z,4.3
2023-11-04T01:06:08.592Z,4.6
2023-11-04T01:08:35.453Z,4.9
2023-11-04T01:11:02.320Z,5.2
2023-11-04T01:13:29.116Z,6.3
2023-11-04T01:15:55.958Z,5.2
2023-11-04T01:18:22.788Z,6.1
2023-11-04T01:20:49.629Z,5.7
2023-11-04T01:23:15.067Z,6.2
2023-11-04T01:25:41.893Z,5.2
2023-11-04T01:28:08.726Z,6.1
2023-11-04T01:30:35.562Z,5.8
2023-11-04T01:33:02.399Z,5.9
2023-11-04T01:35:29.248Z,6.3
2023-11-04T01:37:56.085Z,6.1
2023-11-04T01:40:22.922Z,5.1
2023-11-04T01:42:49.762Z,4.8
2023-11-04T01:45:16.620Z,4.7
2023-11-04T01:47:43.489Z,5.5
2023-11-04T01:50:10.299Z,4.8
2023-11-04T01:52:37.130Z,5.5
2023-11-04T01:55:02.550Z,5.6
2023-11-04T01:57:29.385Z,6.5
2023-11-04T01:59:56.236Z,5.5
2023-11-04T02:02:23.065Z,5.9
2023-11-04T02:04:49.990Z,5.7
2023-11-04T02:07:16.760Z,5.6
2023-11-04T02:09:43.587Z,6.4
2023-11-04T02:12:10.423Z,6.2
2023-11-04T02:14:37.268Z,6.2
2023-11-04T02:17:04.122Z,5.9
2023-11-04T02:19:29.565Z,5.8
2023-11-04T02:21:56.407Z,5.7
2023-11-04T02:24:23.243Z,6.3
2023-11-04T02:29:16.923Z,5.6
2023-11-04T02:31:43.770Z,5.8
2023-11-04T02:34:10.599Z,6.1
2023-11-04T02:36:37.440Z,6.7
2023-11-04T02:39:04.277Z,5.6
2023-11-04T02:41:31.151Z,5.6
2023-11-04T02:43:57.965Z,7
2023-11-04T02:46:24.799Z,5.7
2023-11-04T02:48:51.666Z,4.8
2023-11-04T02:51:17.128Z,5.2
2023-11-04T02:53:43.911Z,5.5
2023-11-04T02:56:10.748Z,5.7
2023-11-04T02:58:37.578Z,5.6
2023-11-04T03:01:04.409Z,5.8
2023-11-04T03:03:31.263Z,4.7
2023-11-04T03:05:58.106Z,5.9
2023-11-04T03:08:24.939Z,4.5
2023-11-04T03:10:51.774Z,5.2
2023-11-04T03:13:18.613Z,5.1
2023-11-04T03:15:45.449Z,4.7
2023-11-04T03:18:12.296Z,5.8
2023-11-04T03:20:39.151Z,6.3
2023-11-04T03:23:05.941Z,6.1
2023-11-04T03:25:31.357Z,6.1
2023-11-04T03:27:58.214Z,6.1
2023-11-04T03:30:25.038Z,5.3
2023-11-04T03:32:51.875Z,6
2023-11-04T03:35:18.750Z,4.9
2023-11-04T03:37:45.555Z,4.1
2023-11-04T03:40:12.405Z,3.7
2023-11-04T03:42:39.247Z,3.9
2023-11-04T03:45:06.087Z,3.5
2023-11-04T03:47:32.916Z,3.7
2023-11-04T03:49:59.756Z,7
2023-11-04T03:52:26.632Z,5.2
2023-11-04T03:57:20.287Z,4.1
2023-11-04T03:59:47.138Z,4.7
2023-11-04T04:02:13.958Z,3.9
2023-11-04T04:04:40.796Z,5
2023-11-04T04:07:06.213Z,3.4
2023-11-04T04:09:33.046Z,4.7
2023-11-04T04:11:59.898Z,4.4
2023-11-04T04:14:26.742Z,4.6
2023-11-04T04:16:53.592Z,5.1
2023-11-04T04:19:19.562Z,4.9
2023-11-04T04:21:46.422Z,4.9
2023-11-04T04:24:13.234Z,4.3
2023-11-04T04:26:40.093Z,4.4
2023-11-04T04:29:06.917Z,4.4
2023-11-04T04:31:33.767Z,3.9
2023-11-04T04:34:00.612Z,5.1
2023-11-04T04:36:27.440Z,4.8
2023-11-04T04:38:52.902Z,3.8
2023-11-04T04:41:19.734Z,3.9
2023-11-04T04:43:46.557Z,4
2023-11-04T04:46:13.371Z,4.2
2023-11-04T04:48:40.229Z,4
2023-11-04T04:51:07.061Z,4.3
2023-11-04T04:53:33.907Z,4.2
2023-11-04T04:56:00.752Z,3.6
2023-11-04T04:58:27.585Z,3.6
2023-11-04T05:00:54.419Z,4.5
2023-11-04T05:03:21.366Z,4.6
2023-11-04T05:05:48.115Z,5.4
2023-11-04T05:08:14.957Z,4.8
2023-11-04T05:10:41.789Z,5.5
2023-11-04T05:13:07.209Z,5.7
2023-11-04T05:15:34.042Z,5
2023-11-04T05:18:00.891Z,4
2023-11-04T05:20:27.720Z,4.5
2023-11-04T05:22:54.555Z,4.3
2023-11-04T05:25:21.420Z,4.3
2023-11-04T05:27:48.258Z,5.2
2023-11-04T05:30:15.093Z,5
2023-11-04T05:32:41.931Z,4
2023-11-04T05:35:08.784Z,4.7
2023-11-04T05:37:35.614Z,3.6
2023-11-04T05:40:02.462Z,3.8
2023-11-04T05:42:29.295Z,4.1
2023-11-04T05:44:56.133Z,3.8
2023-11-04T05:47:22.985Z,4.1
2023-11-04T05:49:48.397Z,3.5
2023-11-04T05:52:15.240Z,4.4
2023-11-04T05:54:42.078Z,3.5
2023-11-04T05:57:08.911Z,3.9
2023-11-04T05:59:35.747Z,4.7
2023-11-04T06:04:29.427Z,4
2023-11-04T06:06:56.281Z,4.2
2023-11-04T06:09:23.133Z,3.6
2023-11-04T06:11:49.969Z,3.7
2023-11-04T06:14:16.796Z,3.3
2023-11-04T06:16:43.634Z,3.7
2023-11-04T06:19:10.478Z,3.9
2023-11-04T06:21:35.885Z,4.1
2023-11-04T06:24:02.734Z,4.1
2023-11-04T06:26:29.576Z,4.8
2023-11-04T06:28:56.419Z,4.2
2023-11-04T06:31:23.251Z,4
2023-11-04T06:33:50.108Z,3.8
2023-11-04T06:36:16.950Z,3.8
2023-11-04T06:38:43.782Z,3.6
2023-11-04T06:41:10.624Z,3.7
2023-11-04T06:43:37.465Z,3.7
2023-11-04T06:46:04.307Z,3
2023-11-04T06:48:31.142Z,3
2023-11-04T06:50:57.987Z,2
2023-11-04T06:53:23.389Z,1.9
2023-11-04T06:55:50.241Z,2.3
2023-11-04T06:58:17.147Z,1.9
2023-11-04T07:00:43.923Z,2
2023-11-04T07:03:10.767Z,2.1
2023-11-04T07:05:37.598Z,2.2
2023-11-04T07:08:04.443Z,2.5
2023-11-04T07:10:31.285Z,3.1
2023-11-04T07:12:58.124Z,3
2023-11-04T07:15:24.962Z,2.4
2023-11-04T07:17:51.796Z,2.7
2023-11-04T07:20:18.655Z,2.5
2023-11-04T07:22:45.574Z,3.2
2023-11-04T07:25:12.294Z,2.9
2023-11-04T07:27:37.716Z,3.9
2023-11-04T07:30:04.547Z,3.1
2023-11-04T07:32:31.391Z,3.5
2023-11-04T07:34:58.216Z,2.6
2023-11-04T07:37:25.075Z,2.9
2023-11-04T07:39:51.913Z,2.2
2023-11-04T07:42:18.758Z,1.9
2023-11-04T07:44:45.585Z,2.3
2023-11-04T07:47:12.414Z,2.2
2023-11-04T07:49:39.274Z,2.2
2023-11-04T07:52:06.104Z,2.7
2023-11-04T07:54:32.951Z,3.7
2023-11-04T07:56:59.775Z,3.7
2023-11-04T07:59:25.211Z,3.4
2023-11-04T08:01:52.063Z,3.8
2023-11-04T08:04:18.894Z,3.8
2023-11-04T08:06:45.725Z,4.3
2023-11-04T08:09:12.597Z,3.7
2023-11-04T08:11:39.392Z,3.2
2023-11-04T08:14:06.246Z,3.6
2023-11-04T08:16:33.075Z,3
2023-11-04T08:18:59.920Z,3.3
2023-11-04T08:21:26.743Z,3.5
2023-11-04T08:23:53.433Z,3.7
2023-11-04T08:26:20.256Z,3.4
2023-11-04T08:28:47.097Z,3
2023-11-04T08:31:13.943Z,3.3
2023-11-04T08:33:39.369Z,3
2023-11-04T08:36:06.210Z,3.3
2023-11-04T08:38:33.035Z,2.7
2023-11-04T08:40:59.889Z,2.6
2023-11-04T08:43:26.717Z,3.4
2023-11-04T08:45:53.553Z,2.8
2023-11-04T08:48:20.403Z,2.4
2023-11-04T08:50:47.264Z,2.6
2023-11-04T08:53:14.148Z,2.2
2023-11-04T08:55:40.916Z,2.2
2023-11-04T08:58:07.784Z,1.9
2023-11-04T09:00:34.597Z,2.8
2023-11-04T09:03:01.439Z,1.8
2023-11-04T09:05:28.276Z,2.1
2023-11-04T09:07:53.695Z,2.2
2023-11-04T09:12:47.378Z,1.6
2023-11-04T09:15:14.218Z,1.5
2023-11-04T09:17:41.152Z,1.4
2023-11-04T09:20:07.912Z,1.2
2023-11-04T09:22:34.737Z,1.7
2023-11-04T09:25:01.563Z,1.2
2023-11-04T09:27:28.424Z,1.1
2023-11-04T09:29:55.250Z,0.8
2023-11-04T09:32:22.092Z,1.4
2023-11-04T09:34:48.937Z,0.8
2023-11-04T09:37:15.773Z,0.7
2023-11-04T09:39:41.181Z,0.8
2023-11-04T09:42:08.031Z,1.5
2023-11-04T09:44:34.861Z,1.1
2023-11-04T09:47:01.714Z,1.4
2023-11-04T09:49:28.549Z,1.2
2023-11-04T09:51:55.383Z,1
2023-11-04T09:54:22.235Z,1.1
2023-11-04T09:56:49.051Z,0.7
2023-11-04T09:59:15.910Z,0.5
2023-11-04T10:01:42.740Z,0.7
2023-11-04T10:04:09.595Z,0.7
2023-11-04T10:06:36.418Z,0.6
2023-11-04T10:09:03.270Z,0.8
2023-11-04T10:11:30.117Z,0.6
2023-11-04T10:13:55.535Z,0.6
2023-11-04T10:16:22.346Z,0.7
2023-11-04T10:18:49.195Z,0.6
2023-11-04T10:21:16.032Z,0.6
2023-11-04T10:23:42.881Z,0.4
2023-11-04T10:26:09.727Z,0.5
2023-11-04T10:28:36.568Z,0.5
2023-11-04T10:31:02.028Z,0.6
2023-11-04T10:33:28.854Z,0.5
2023-11-04T10:35:55.703Z,0.5
2023-11-04T10:38:22.521Z,0.5
2023-11-04T10:40:49.415Z,0.6
2023-11-04T10:43:16.216Z,0.5
2023-11-04T10:45:43.054Z,0.2
2023-11-04T10:48:09.895Z,0.5
2023-11-04T10:50:36.751Z,0.4
2023-11-04T10:53:03.556Z,0.6
2023-11-04T10:55:30.435Z,0.4
2023-11-04T10:57:57.257Z,0.5
2023-11-04T11:00:24.189Z,0.4
2023-11-04T11:02:49.498Z,0.3
2023-11-04T11:05:16.337Z,0.5
2023-11-04T11:07:43.180Z,0.7
2023-11-04T11:10:10.058Z,0.4
2023-11-04T11:12:36.870Z,0.6
2023-11-04T11:15:03.706Z,0.5
2023-11-04T11:17:30.534Z,0.4
2023-11-04T11:19:57.404Z,0.5
2023-11-04T11:22:24.226Z,0.6
2023-11-04T11:24:51.066Z,0.5
2023-11-04T11:27:17.903Z,0.7
2023-11-04T11:29:44.746Z,0.3
2023-11-04T11:32:11.604Z,0.2
2023-11-04T11:34:36.993Z,0.4
2023-11-04T11:37:03.901Z,0.3
2023-11-04T11:39:30.671Z,0.4
2023-11-04T11:41:57.508Z,0.4
2023-11-04T11:44:24.355Z,0.5
2023-11-04T11:46:51.182Z,0.3
2023-11-04T11:49:18.028Z,0.6
2023-11-04T11:51:44.868Z,0.7
2023-11-04T11:56:38.559Z,0.4
2023-11-04T11:59:05.382Z,0.4
2023-11-04T12:01:32.231Z,0.5
2023-11-04T12:03:59.065Z,0.5
2023-11-04T12:06:24.490Z,0.3
2023-11-04T12:08:51.349Z,0.8
2023-11-04T12:11:18.169Z,0.3
2023-11-04T12:13:45.082Z,0.5
2023-11-04T12:16:11.845Z,0.6
2023-11-04T12:18:38.686Z,0.4
2023-11-04T12:21:05.527Z,0.5
2023-11-04T12:23:32.359Z,0.4
2023-11-04T12:25:59.216Z,0.5
2023-11-04T12:28:26.049Z,0.5
2023-11-04T12:30:52.887Z,0.5
2023-11-04T12:33:19.712Z,0.4
2023-11-04T12:35:46.549Z,0.7
2023-11-04T12:38:12.010Z,0.4
2023-11-04T12:40:38.810Z,0.5
2023-11-04T12:43:05.650Z,0.4
2023-11-04T12:45:32.505Z,0.8
2023-11-04T12:47:59.348Z,2.1
2023-11-04T12:50:26.169Z,1
2023-11-04T12:52:53.020Z,0.6
2023-11-04T12:55:19.852Z,0.9
2023-11-04T12:57:46.691Z,1
2023-11-04T13:00:13.543Z,1.2
2023-11-04T13:02:40.369Z,1.8
2023-11-04T13:05:07.207Z,1.4
2023-11-04T13:07:34.048Z,2
2023-11-04T13:09:59.464Z,1.6
2023-11-04T13:12:26.302Z,1.6
2023-11-04T13:14:53.162Z,1.2
2023-11-04T13:17:19.980Z,0.8
2023-11-04T13:19:47.014Z,0.8
2023-11-04T13:22:13.664Z,1.3
2023-11-04T13:24:40.497Z,1
2023-11-04T13:27:07.339Z,1
2023-11-04T13:29:34.191Z,0.5
2023-11-04T13:32:01.040Z,0.8
2023-11-04T13:34:27.876Z,0.6
2023-11-04T13:36:54.693Z,0.8
2023-11-04T13:39:21.542Z,0.9
2023-11-04T13:41:46.945Z,1
2023-11-04T13:44:13.821Z,0.8
2023-11-04T13:46:40.634Z,1.2
2023-11-04T13:49:07.474Z,1.3
2023-11-04T13:51:34.316Z,1.1
2023-11-04T13:54:01.151Z,0.8
2023-11-04T13:56:27.982Z,0.5
2023-11-04T13:58:54.856Z,0.5
2023-11-04T14:01:21.680Z,0.5
2023-11-04T14:03:48.514Z,0.4
2023-11-04T14:06:15.356Z,0.5
2023-11-04T14:08:42.209Z,0.5
2023-11-04T14:13:35.864Z,0.8
2023-11-04T14:16:01.348Z,1.1
2023-11-04T14:18:28.120Z,0.5
2023-11-04T14:20:54.964Z,0.3
2023-11-04T14:23:21.808Z,0.5
2023-11-04T14:25:48.634Z,0.5
2023-11-04T14:28:15.481Z,0.5
2023-11-04T14:30:42.316Z,0.5
2023-11-04T14:33:09.160Z,0.6
2023-11-04T14:35:35.987Z,0.5
2023-11-04T14:38:02.825Z,0.8
2023-11-04T14:40:29.675Z,0.6
2023-11-04T14:42:56.504Z,0.5
2023-11-04T14:45:23.370Z,0.6
2023-11-04T14:47:48.796Z,0.5
2023-11-04T14:52:42.441Z,0.4
2023-11-04T14:55:09.299Z,0.5
2023-11-04T14:57:36.130Z,0.7
2023-11-04T15:00:02.973Z,0.4
2023-11-04T15:02:29.805Z,0.5
2023-11-04T15:04:56.646Z,0.5
2023-11-04T15:07:23.496Z,0.8
2023-11-04T15:09:50.323Z,0.7
2023-11-04T15:12:17.174Z,0.5
2023-11-04T15:14:44.009Z,1.2
2023-11-04T15:17:10.883Z,1.5
2023-11-04T15:19:37.658Z,0.9
2023-11-04T15:22:03.147Z,0.9
2023-11-04T15:24:29.914Z,0.5
2023-11-04T15:26:56.769Z,0.5
2023-11-04T15:29:23.593Z,0.5
2023-11-04T15:31:50.488Z,0.5
2023-11-04T15:36:44.113Z,0.6
2023-11-04T15:39:10.955Z,0.5
2023-11-04T15:41:37.827Z,0.5
2023-11-04T15:44:04.628Z,0.4
2023-11-04T15:46:31.465Z,0.5
2023-11-04T15:48:58.320Z,0.5
2023-11-04T15:51:25.192Z,0.5
2023-11-04T15:53:50.561Z,0.5
2023-11-04T15:56:17.413Z,0.3
2023-11-04T15:58:44.245Z,0.4
2023-11-04T16:01:11.096Z,0.6
2023-11-04T16:03:37.933Z,0.3
2023-11-04T16:08:31.605Z,0.5
2023-11-04T16:10:58.443Z,0.6
2023-11-04T16:13:25.297Z,0.5
2023-11-04T16:15:52.127Z,0.6
2023-11-04T16:18:18.963Z,0.4
2023-11-04T16:20:45.843Z,0.6
2023-11-04T16:23:12.650Z,0.3
2023-11-04T16:25:39.458Z,0.6
2023-11-04T16:28:04.877Z,0.3
2023-11-04T16:30:31.756Z,0.7
2023-11-04T16:32:58.551Z,1.2
2023-11-04T16:35:25.399Z,0.9
2023-11-04T16:37:52.238Z,0.8
2023-11-04T16:40:19.070Z,0.7
2023-11-04T16:42:45.938Z,1.2
2023-11-04T16:45:12.746Z,1
2023-11-04T16:47:39.584Z,0.9
2023-11-04T16:50:06.444Z,0.9
2023-11-04T16:52:33.265Z,0.8
2023-11-04T16:55:00.109Z,0.8
2023-11-04T16:57:26.959Z,0.4
2023-11-04T16:59:52.359Z,0.6
2023-11-04T17:02:19.213Z,0.8
2023-11-04T17:04:46.034Z,0.8
2023-11-04T17:07:12.888Z,0.5
2023-11-04T17:09:39.733Z,0.8
2023-11-04T17:12:06.568Z,0.6
2023-11-04T17:14:33.396Z,0.7
2023-11-04T17:17:00.254Z,0.6
2023-11-04T17:19:27.087Z,0.8
2023-11-04T17:21:53.924Z,0.8
2023-11-04T17:24:20.780Z,0.5
2023-11-04T17:26:47.594Z,1
2023-11-04T17:29:14.498Z,0.8
2023-11-04T17:31:39.859Z,0.7
2023-11-04T17:34:06.709Z,1.2
2023-11-04T17:36:33.540Z,1.1
2023-11-04T17:39:00.377Z,0.7
2023-11-04T17:41:27.279Z,1.4
2023-11-04T17:43:54.054Z,1
2023-11-04T17:46:20.998Z,1.1
2023-11-04T17:48:47.727Z,1
2023-11-04T17:51:14.581Z,1.1
2023-11-04T17:53:41.409Z,0.5
2023-11-04T17:56:08.267Z,1.3
2023-11-04T17:58:35.091Z,0.8
2023-11-04T18:01:01.937Z,0.9
2023-11-04T18:03:27.345Z,0.8
2023-11-04T18:05:54.197Z,1
2023-11-04T18:08:21.050Z,0.8
2023-11-04T18:10:47.893Z,0.7
2023-11-04T18:13:14.708Z,1.1
2023-11-04T18:15:41.601Z,0.7
2023-11-04T18:18:08.384Z,1.2
2023-11-04T18:20:35.229Z,1
2023-11-04T18:23:02.076Z,0.9
2023-11-04T18:25:28.904Z,1
2023-11-04T18:27:55.743Z,0.8
2023-11-04T18:30:22.600Z,0.7
2023-11-04T18:32:49.424Z,0.6
2023-11-04T18:35:15.031Z,1
2023-11-04T18:37:41.744Z,0.7
2023-11-04T18:40:08.525Z,0.8
2023-11-04T18:42:35.361Z,0.7
2023-11-04T18:45:00.800Z,0.5
2023-11-04T18:47:27.701Z,1.1
2023-11-04T18:49:54.478Z,0.7
2023-11-04T18:52:21.358Z,0.8
2023-11-04T18:54:47.952Z,0.7
2023-11-04T18:57:14.803Z,0.8
2023-11-04T19:02:08.501Z,0.7
2023-11-04T19:04:35.344Z,0.4
2023-11-04T19:07:02.159Z,0.7
2023-11-04T19:09:28.988Z,0.8
2023-11-04T19:11:55.819Z,0.7
2023-11-04T19:14:22.669Z,0.7
2023-11-04T19:16:49.466Z,0.8
2023-11-04T19:19:14.874Z,0.8
2023-11-04T19:21:41.722Z,1.4
2023-11-04T19:24:08.555Z,1.2
2023-11-04T19:26:35.385Z,0.6
2023-11-04T19:29:02.247Z,0.5
2023-11-04T19:31:29.080Z,1
2023-11-04T19:33:55.909Z,0.7
2023-11-04T19:36:22.767Z,0.7
2023-11-04T19:38:49.609Z,0.7
2023-11-04T19:41:16.480Z,0.7
2023-11-04T19:43:43.285Z,0.7
2023-11-04T19:46:10.132Z,0.8
2023-11-04T19:48:36.983Z,0.8
2023-11-04T19:51:03.784Z,0.7
2023-11-04T19:53:29.244Z,0.8
2023-11-04T19:55:56.046Z,0.9
2023-11-04T19:58:22.898Z,1.2
2023-11-04T20:00:49.759Z,0.6
2023-11-04T20:03:16.563Z,0.6
2023-11-04T20:05:43.414Z,0.7
2023-11-04T20:08:10.254Z,0.7
2023-11-04T20:10:37.091Z,0.6
2023-11-04T20:13:03.923Z,0.7
2023-11-04T20:15:30.818Z,0.8
2023-11-04T20:17:57.599Z,0.7
2023-11-04T20:20:24.445Z,0.8
2023-11-04T20:22:51.388Z,1
2023-11-04T20:25:18.098Z,0.6
2023-11-04T20:27:44.942Z,0.4
2023-11-04T20:30:11.782Z,0.5
2023-11-04T20:32:37.186Z,0.6
2023-11-04T20:35:04.059Z,0.6
2023-11-04T20:37:30.868Z,0.7
2023-11-04T20:39:57.711Z,0.7
2023-11-04T20:42:24.562Z,0.4
2023-11-04T20:44:51.417Z,0.5
2023-11-04T20:47:18.237Z,0.7
2023-11-04T20:49:45.070Z,0.7
2023-11-04T20:52:11.920Z,0.8
2023-11-04T20:54:38.738Z,0.8
2023-11-04T20:57:05.601Z,0.6
2023-11-04T20:59:32.428Z,0.5
2023-11-04T21:01:59.266Z,0.5
2023-11-04T21:06:52.950Z,0.7
2023-11-04T21:09:19.760Z,0.5
2023-11-04T21:11:45.172Z,0.6
2023-11-04T21:14:12.018Z,0.4
2023-11-04T21:16:38.849Z,0.5
2023-11-04T21:19:05.702Z,0.5
2023-11-04T21:21:32.529Z,0.5
2023-11-04T21:23:59.377Z,0.5
2023-11-04T21:26:26.215Z,0.5
2023-11-04T21:28:53.036Z,0.5
2023-11-04T21:31:19.878Z,0.6
2023-11-04T21:33:46.739Z,0.4
2023-11-04T21:36:13.642Z,0.5
2023-11-04T21:38:40.460Z,0.5
2023-11-04T21:41:07.243Z,0.6
2023-11-04T21:43:32.665Z,0.5
2023-11-04T21:45:59.509Z,0.4
2023-11-04T21:48:26.378Z,0.6
2023-11-04T21:50:53.188Z,0.5
2023-11-04T21:53:20.016Z,0.5
2023-11-04T21:55:46.866Z,0.5
2023-11-04T21:58:13.760Z,0.2
2023-11-04T22:00:40.548Z,0.3
2023-11-04T22:03:07.365Z,0.6
2023-11-04T22:05:34.214Z,0.3
2023-11-04T22:08:00.232Z,0.7
2023-11-04T22:10:27.069Z,0.4
2023-11-04T22:12:53.949Z,0.4
2023-11-04T22:15:19.345Z,0.4
2023-11-04T22:17:46.168Z,0.2
2023-11-04T22:20:13.031Z,0.4
2023-11-04T22:22:39.852Z,0.4
2023-11-04T22:25:06.682Z,0.5
2023-11-04T22:27:33.550Z,0.7
2023-11-04T22:30:00.369Z,0.6
2023-11-04T22:34:54.057Z,0.4
2023-11-04T22:37:20.876Z,0.6
2023-11-04T22:39:47.720Z,0.5
2023-11-04T22:42:14.577Z,0.5
2023-11-04T22:44:41.401Z,0.5
2023-11-04T22:47:08.213Z,0.7
2023-11-04T22:49:35.064Z,0.7
2023-11-04T22:52:00.478Z,0.7
2023-11-04T22:54:27.321Z,0.6
2023-11-04T22:56:54.142Z,0.5
2023-11-04T22:59:20.995Z,0.5
2023-11-04T23:01:47.838Z,0.6
2023-11-04T23:04:14.674Z,0.6
2023-11-04T23:06:41.514Z,0.6
2023-11-04T23:09:08.342Z,0.5
2023-11-04T23:11:35.196Z,0.5
2023-11-04T23:14:02.032Z,0.6
2023-11-04T23:16:28.886Z,0.8
2023-11-04T23:18:55.709Z,0.7
2023-11-04T23:21:22.564Z,0.6
2023-11-04T23:23:47.979Z,0.6
2023-11-04T23:26:14.836Z,0.8
2023-11-04T23:28:41.664Z,0.4
2023-11-04T23:31:08.480Z,0.6
2023-11-04T23:33:35.329Z,0.5
2023-11-04T23:36:02.194Z,0.4
2023-11-04T23:38:29.020Z,0.3
2023-11-04T23:40:55.859Z,0.5
2023-11-04T23:43:22.695Z,0.7
2023-11-04T23:45:49.524Z,0.6
2023-11-04T23:48:16.382Z,0.5
2023-11-04T23:50:43.202Z,0.7
2023-11-04T23:53:10.041Z,0.6
2023-11-04T23:55:36.849Z,1.1
2023-11-04T23:58:02.261Z,1.6
